createdAt,value
2023-02-19T00:01:52.270Z,-90
2023-02-19T00:04:58.244Z,-91
2023-02-19T00:08:04.762Z,-91
2023-02-19T00:11:19.202Z,-90
2023-02-19T00:14:25.869Z,-92
2023-02-19T00:17:31.628Z,-92
2023-02-19T00:20:38.240Z,-91
2023-02-19T00:23:44.402Z,-92
2023-02-19T00:26:53.731Z,-90
2023-02-19T00:29:59.494Z,-92
2023-02-19T00:33:06.276Z,-92
2023-02-19T00:36:12.504Z,-91
2023-02-19T00:39:21.573Z,-90
2023-02-19T00:42:30.050Z,-89
2023-02-19T00:45:37.063Z,-90
2023-02-19T00:48:42.861Z,-89
2023-02-19T00:51:50.489Z,-91
2023-02-19T00:54:56.834Z,-90
2023-02-19T00:58:06.036Z,-90
2023-02-19T01:01:13.864Z,-89
2023-02-19T01:04:20.553Z,-91
2023-02-19T01:07:26.514Z,-90
2023-02-19T01:10:33.099Z,-89
2023-02-19T01:13:42.127Z,-90
2023-02-19T01:16:48.992Z,-91
2023-02-19T01:19:55.980Z,-89
2023-02-19T01:23:02.640Z,-90
2023-02-19T01:26:09.942Z,-90
2023-02-19T01:29:20.260Z,-90
2023-02-19T01:32:26.335Z,-88
2023-02-19T01:35:33.134Z,-89
2023-02-19T01:38:39.012Z,-90
2023-02-19T01:41:45.945Z,-90
2023-02-19T01:45:33.497Z,-88
2023-02-19T01:48:42.997Z,-90
2023-02-19T01:51:55.845Z,-89
2023-02-19T01:55:06.309Z,-91
2023-02-19T01:58:13.577Z,-90
2023-02-19T02:01:24.131Z,-91
2023-02-19T02:04:34.276Z,-89
2023-02-19T02:07:53.455Z,-91
2023-02-19T02:11:00.960Z,-90
2023-02-19T02:14:08.768Z,-90
2023-02-19T02:17:31.587Z,-89
2023-02-19T02:21:16.202Z,-90
2023-02-19T02:24:56.070Z,-89
2023-02-19T02:28:29.114Z,-90
2023-02-19T02:31:47.099Z,-90
2023-02-19T02:35:04.209Z,-90
2023-02-19T02:38:16.698Z,-91
2023-02-19T02:41:24.213Z,-89
2023-02-19T02:44:38.436Z,-89
2023-02-19T02:47:56.068Z,-89
2023-02-19T02:51:14.083Z,-90
2023-02-19T02:54:46.907Z,-90
2023-02-19T02:57:53.753Z,-89
2023-02-19T03:01:20.410Z,-88
2023-02-19T03:05:01.117Z,-88
2023-02-19T03:08:17.244Z,-90
2023-02-19T03:11:36.952Z,-89
2023-02-19T03:15:04.451Z,-90
2023-02-19T03:18:29.625Z,-88
2023-02-19T03:21:46.519Z,-89
2023-02-19T03:25:12.528Z,-90
2023-02-19T03:28:45.683Z,-90
2023-02-19T03:31:57.922Z,-90
2023-02-19T03:35:16.819Z,-91
2023-02-19T03:38:39.833Z,-92
2023-02-19T03:42:06.025Z,-92
2023-02-19T03:45:50.405Z,-90
2023-02-19T03:49:08.442Z,-92
2023-02-19T03:52:27.328Z,-91
2023-02-19T03:55:52.235Z,-91
2023-02-19T03:59:12.422Z,-91
2023-02-19T04:02:32.910Z,-92
2023-02-19T04:05:50.020Z,-91
2023-02-19T04:09:02.757Z,-91
2023-02-19T04:12:14.068Z,-91
2023-02-19T04:15:29.608Z,-90
2023-02-19T04:18:43.949Z,-91
2023-02-19T04:21:53.528Z,-91
2023-02-19T04:25:01.126Z,-91
2023-02-19T04:28:12.473Z,-91
2023-02-19T04:31:18.622Z,-91
2023-02-19T04:34:25.306Z,-91
2023-02-19T04:37:31.365Z,-91
2023-02-19T04:40:38.198Z,-92
2023-02-19T04:43:46.779Z,-93
2023-02-19T04:46:53.519Z,-92
2023-02-19T04:49:59.274Z,-91
2023-02-19T04:53:05.800Z,-92
2023-02-19T04:56:13.560Z,-92
2023-02-19T04:59:22.765Z,-91
2023-02-19T05:02:28.677Z,-91
2023-02-19T05:05:35.187Z,-90
2023-02-19T05:08:41.186Z,-91
2023-02-19T05:11:47.783Z,-91
2023-02-19T05:14:56.249Z,-91
2023-02-19T05:18:03.029Z,-91
2023-02-19T05:21:09.532Z,-91
2023-02-19T05:24:16.293Z,-91
2023-02-19T05:27:22.195Z,-94
2023-02-19T05:30:33.438Z,-93
2023-02-19T05:33:41.551Z,-91
2023-02-19T05:36:48.034Z,-91
2023-02-19T05:39:53.878Z,-93
2023-02-19T05:43:00.539Z,-91
2023-02-19T05:46:10.578Z,-90
2023-02-19T05:49:17.255Z,-92
2023-02-19T05:52:23.315Z,-91
2023-02-19T05:55:30.015Z,-92
2023-02-19T05:58:35.763Z,-92
2023-02-19T06:01:45.090Z,-92
2023-02-19T06:04:50.866Z,-91
2023-02-19T06:07:57.464Z,-89
2023-02-19T06:11:03.240Z,-88
2023-02-19T06:14:10.344Z,-89
2023-02-19T06:17:19.203Z,-91
2023-02-19T06:20:26.390Z,-90
2023-02-19T06:23:32.408Z,-89
2023-02-19T06:26:39.621Z,-91
2023-02-19T06:29:45.475Z,-89
2023-02-19T06:32:55.833Z,-80
2023-02-19T06:36:03.403Z,-79
2023-02-19T06:39:10.284Z,-80
2023-02-19T06:42:16.167Z,-80
2023-02-19T06:45:22.676Z,-80
2023-02-19T06:48:34.685Z,-80
2023-02-19T06:51:41.198Z,-80
2023-02-19T06:54:47.664Z,-79
2023-02-19T06:57:54.394Z,-80
2023-02-19T07:01:00.239Z,-79
2023-02-19T07:04:10.504Z,-79
2023-02-19T07:07:16.393Z,-80
2023-02-19T07:10:23.036Z,-80
2023-02-19T07:13:30.374Z,-79
2023-02-19T07:16:37.347Z,-79
2023-02-19T07:19:45.829Z,-79
2023-02-19T07:22:52.344Z,-79
2023-02-19T07:26:01.244Z,-80
2023-02-19T07:29:08.068Z,-79
2023-02-19T07:32:13.958Z,-80
2023-02-19T07:35:23.227Z,-80
2023-02-19T07:38:31.833Z,-80
2023-02-19T07:41:38.381Z,-80
2023-02-19T07:44:45.357Z,-80
2023-02-19T07:47:51.957Z,-78
2023-02-19T07:51:03.774Z,-80
2023-02-19T07:54:10.445Z,-78
2023-02-19T07:57:16.259Z,-79
2023-02-19T08:00:23.235Z,-80
2023-02-19T08:03:26.467Z,-78
2023-02-19T08:06:35.891Z,-78
2023-02-19T08:09:41.712Z,-81
2023-02-19T08:13:09.868Z,-80
2023-02-19T08:16:29.617Z,-80
2023-02-19T08:19:43.972Z,-78
2023-02-19T08:22:52.436Z,-79
2023-02-19T08:26:02.880Z,-79
2023-02-19T08:29:10.662Z,-79
2023-02-19T08:32:17.227Z,-82
2023-02-19T08:35:24.767Z,-80
2023-02-19T08:38:35.939Z,-80
2023-02-19T08:41:41.669Z,-80
2023-02-19T08:44:48.486Z,-80
2023-02-19T08:47:54.246Z,-80
2023-02-19T08:51:04.816Z,-79
2023-02-19T08:54:13.246Z,-79
2023-02-19T08:57:20.001Z,-79
2023-02-19T09:00:27.487Z,-78
2023-02-19T09:03:34.527Z,-79
2023-02-19T09:06:40.668Z,-79
2023-02-19T09:09:50.148Z,-79
2023-02-19T09:12:57.079Z,-79
2023-02-19T09:16:08.858Z,-78
2023-02-19T09:19:17.091Z,-79
2023-02-19T09:22:23.693Z,-79
2023-02-19T09:25:32.216Z,-79
2023-02-19T09:28:41.889Z,-79
2023-02-19T09:31:48.675Z,-80
2023-02-19T09:34:55.691Z,-79
2023-02-19T09:38:03.574Z,-78
2023-02-19T09:41:25.771Z,-79
2023-02-19T09:44:38.275Z,-80
2023-02-19T09:47:44.888Z,-78
2023-02-19T09:50:53.464Z,-77
2023-02-19T09:54:01.924Z,-79
2023-02-19T09:57:20.824Z,-78
2023-02-19T10:00:32.868Z,-79
2023-02-19T10:03:43.526Z,-78
2023-02-19T10:06:59.134Z,-78
2023-02-19T10:10:27.589Z,-78
2023-02-19T10:13:45.666Z,-79
2023-02-19T10:16:54.029Z,-79
2023-02-19T10:20:03.506Z,-78
2023-02-19T10:23:15.412Z,-80
2023-02-19T10:26:23.312Z,-78
2023-02-19T10:29:31.646Z,-80
2023-02-19T10:32:42.268Z,-80
2023-02-19T10:36:00.389Z,-78
2023-02-19T10:39:43.890Z,-80
2023-02-19T10:42:53.462Z,-81
2023-02-19T10:46:07.781Z,-81
2023-02-19T10:49:35.695Z,-81
2023-02-19T10:52:42.580Z,-81
2023-02-19T10:55:49.627Z,-78
2023-02-19T10:58:56.816Z,-79
2023-02-19T11:02:18.478Z,-79
2023-02-19T11:05:25.590Z,-80
2023-02-19T11:08:33.984Z,-78
2023-02-19T11:11:43.480Z,-80
2023-02-19T11:14:50.684Z,-79
2023-02-19T11:18:25.124Z,-80
2023-02-19T11:21:33.818Z,-80
2023-02-19T11:24:42.390Z,-80
2023-02-19T11:28:01.147Z,-81
2023-02-19T11:31:26.595Z,-82
2023-02-19T11:34:37.711Z,-80
2023-02-19T11:38:00.100Z,-79
2023-02-19T11:41:25.894Z,-79
2023-02-19T11:44:55.392Z,-78
2023-02-19T11:48:32.796Z,-79
2023-02-19T11:52:11.057Z,-79
2023-02-19T11:55:37.264Z,-79
2023-02-19T11:59:05.086Z,-78
2023-02-19T12:02:54.370Z,-79
2023-02-19T12:06:25.972Z,-80
2023-02-19T12:10:02.153Z,-79
2023-02-19T12:13:26.629Z,-80
2023-02-19T12:16:45.871Z,-80
2023-02-19T12:20:21.724Z,-80
2023-02-19T12:24:23.773Z,-79
2023-02-19T12:27:56.031Z,-79
2023-02-19T12:31:58.434Z,-80
2023-02-19T12:35:40.555Z,-79
2023-02-19T12:38:57.977Z,-78
2023-02-19T12:42:24.643Z,-79
2023-02-19T12:45:41.892Z,-79
2023-02-19T12:49:01.685Z,-78
2023-02-19T12:52:19.778Z,-80
2023-02-19T12:55:34.056Z,-78
2023-02-19T12:58:48.035Z,-80
2023-02-19T13:02:15.726Z,-80
2023-02-19T13:05:41.173Z,-79
2023-02-19T13:09:07.572Z,-79
2023-02-19T13:12:27.121Z,-78
2023-02-19T13:15:44.535Z,-78
2023-02-19T13:18:58.867Z,-80
2023-02-19T13:22:38.653Z,-81
2023-02-19T13:26:11.486Z,-78
2023-02-19T13:29:44.982Z,-79
2023-02-19T13:33:07.063Z,-79
2023-02-19T13:36:28.770Z,-79
2023-02-19T13:39:35.166Z,-78
2023-02-19T13:42:42.577Z,-79
2023-02-19T13:45:57.169Z,-80
2023-02-19T13:49:45.741Z,-80
2023-02-19T13:52:55.289Z,-79
2023-02-19T13:56:02.055Z,-81
2023-02-19T13:59:36.608Z,-80
2023-02-19T14:02:43.486Z,-81
2023-02-19T14:06:09.285Z,-79
2023-02-19T14:09:50.385Z,-80
2023-02-19T14:12:56.176Z,-80
2023-02-19T14:16:02.806Z,-79
2023-02-19T14:19:17.602Z,-79
2023-02-19T14:23:11.501Z,-81
2023-02-19T14:26:23.043Z,-82
2023-02-19T14:29:32.587Z,-80
2023-02-19T14:32:39.205Z,-82
2023-02-19T14:35:50.484Z,-81
2023-02-19T14:39:02.970Z,-82
2023-02-19T14:42:25.215Z,-81
2023-02-19T14:45:40.392Z,-79
2023-02-19T14:48:52.264Z,-78
2023-02-19T14:52:06.474Z,-79
2023-02-19T14:55:28.918Z,-78
2023-02-19T14:58:40.982Z,-79
2023-02-19T15:01:47.781Z,-78
2023-02-19T15:04:53.707Z,-79
2023-02-19T15:08:06.048Z,-83
2023-02-19T15:11:21.796Z,-86
2023-02-19T15:14:32.442Z,-85
2023-02-19T15:17:44.562Z,-83
2023-02-19T15:21:01.120Z,-84
2023-02-19T15:24:10.619Z,-82
2023-02-19T15:27:23.451Z,-82
2023-02-19T15:30:32.903Z,-82
2023-02-19T15:33:42.047Z,-84
2023-02-19T15:36:49.837Z,-81
2023-02-19T15:39:59.552Z,-84
2023-02-19T15:43:05.881Z,-81
2023-02-19T15:46:23.548Z,-82
2023-02-19T15:49:45.126Z,-85
2023-02-19T15:53:03.900Z,-82
2023-02-19T15:56:19.098Z,-85
2023-02-19T15:59:36.856Z,-84
2023-02-19T16:02:49.461Z,-83
2023-02-19T16:06:06.011Z,-82
2023-02-19T16:09:26.171Z,-84
2023-02-19T16:12:34.896Z,-85
2023-02-19T16:15:43.873Z,-81
2023-02-19T16:18:56.871Z,-80
2023-02-19T16:22:04.732Z,-84
2023-02-19T16:25:28.086Z,-83
2023-02-19T16:28:42.262Z,-84
2023-02-19T16:31:53.713Z,-83
2023-02-19T16:35:02.432Z,-85
2023-02-19T16:38:24.402Z,-84
2023-02-19T16:41:31.143Z,-81
2023-02-19T16:44:39.062Z,-84
2023-02-19T16:47:48.608Z,-84
2023-02-19T16:50:57.622Z,-86
2023-02-19T16:54:04.756Z,-87
2023-02-19T16:57:12.717Z,-83
2023-02-19T17:00:22.515Z,-86
2023-02-19T17:03:29.442Z,-86
2023-02-19T17:06:39.844Z,-87
2023-02-19T17:09:47.821Z,-84
2023-02-19T17:12:56.328Z,-86
2023-02-19T17:16:03.241Z,-85
2023-02-19T17:19:16.965Z,-86
2023-02-19T17:22:26.862Z,-83
2023-02-19T17:25:33.777Z,-86
2023-02-19T17:28:41.476Z,-84
2023-02-19T17:31:48.837Z,-87
2023-02-19T17:34:55.109Z,-86
2023-02-19T17:38:09.739Z,-86
2023-02-19T17:41:15.721Z,-86
2023-02-19T17:44:22.531Z,-86
2023-02-19T17:47:28.587Z,-83
2023-02-19T17:50:36.103Z,-86
2023-02-19T17:53:46.670Z,-86
2023-02-19T17:56:53.863Z,-87
2023-02-19T17:59:59.876Z,-86
2023-02-19T18:03:07.631Z,-86
2023-02-19T18:06:14.269Z,-82
2023-02-19T18:09:23.924Z,-83
2023-02-19T18:12:29.814Z,-84
2023-02-19T18:15:36.735Z,-85
2023-02-19T18:18:44.563Z,-86
2023-02-19T18:21:51.211Z,-84
2023-02-19T18:24:59.802Z,-85
2023-02-19T18:28:06.719Z,-85
2023-02-19T18:31:15.330Z,-85
2023-02-19T18:34:23.276Z,-86
2023-02-19T18:37:31.903Z,-85
2023-02-19T18:40:41.715Z,-86
2023-02-19T18:43:51.034Z,-86
2023-02-19T18:47:02.600Z,-83
2023-02-19T18:50:13.536Z,-82
2023-02-19T18:53:20.428Z,-85
2023-02-19T18:56:29.539Z,-83
2023-02-19T18:59:36.585Z,-82
2023-02-19T19:02:48.994Z,-82
2023-02-19T19:05:58.696Z,-85
2023-02-19T19:09:06.492Z,-85
2023-02-19T19:12:16.500Z,-82
2023-02-19T19:15:22.683Z,-84
2023-02-19T19:18:31.405Z,-83
2023-02-19T19:21:39.288Z,-81
2023-02-19T19:24:46.869Z,-82
2023-02-19T19:27:59.195Z,-82
2023-02-19T19:31:06.017Z,-86
2023-02-19T19:34:12.379Z,-84
2023-02-19T19:37:19.443Z,-83
2023-02-19T19:40:25.406Z,-83
2023-02-19T19:43:36.783Z,-84
2023-02-19T19:46:48.662Z,-84
2023-02-19T19:49:55.422Z,-84
2023-02-19T19:53:01.354Z,-85
2023-02-19T19:56:09.665Z,-84
2023-02-19T19:59:20.373Z,-84
2023-02-19T20:02:28.989Z,-85
2023-02-19T20:05:35.077Z,-85
2023-02-19T20:08:43.958Z,-84
2023-02-19T20:11:52.995Z,-84
2023-02-19T20:15:03.359Z,-85
2023-02-19T20:18:09.523Z,-87
2023-02-19T20:21:16.312Z,-87
2023-02-19T20:24:26.515Z,-87
2023-02-19T20:27:33.185Z,-86
2023-02-19T20:30:42.286Z,-88
2023-02-19T20:33:51.696Z,-85
2023-02-19T20:37:00.193Z,-86
2023-02-19T20:40:09.330Z,-85
2023-02-19T20:43:17.859Z,-86
2023-02-19T20:46:27.116Z,-85
2023-02-19T20:49:35.417Z,-81
2023-02-19T20:52:42.975Z,-83
2023-02-19T20:55:48.823Z,-81
2023-02-19T20:58:55.977Z,-81
2023-02-19T21:02:05.471Z,-83
2023-02-19T21:05:13.754Z,-82
2023-02-19T21:08:19.972Z,-83
2023-02-19T21:11:26.573Z,-82
2023-02-19T21:14:32.439Z,-83
2023-02-19T21:17:41.798Z,-82
2023-02-19T21:20:48.130Z,-85
2023-02-19T21:23:54.954Z,-84
2023-02-19T21:27:00.782Z,-81
2023-02-19T21:30:09.622Z,-84
2023-02-19T21:33:18.448Z,-84
2023-02-19T21:36:26.667Z,-85
2023-02-19T21:39:33.688Z,-82
2023-02-19T21:42:40.397Z,-86
2023-02-19T21:45:46.578Z,-82
2023-02-19T21:48:58.554Z,-86
2023-02-19T21:52:04.289Z,-84
2023-02-19T21:55:11.400Z,-84
2023-02-19T21:58:17.613Z,-83
2023-02-19T22:01:26.213Z,-84
2023-02-19T22:04:34.536Z,-86
2023-02-19T22:07:41.824Z,-86
2023-02-19T22:10:48.120Z,-85
2023-02-19T22:13:55.449Z,-84
2023-02-19T22:17:01.422Z,-82
2023-02-19T22:20:11.993Z,-84
2023-02-19T22:23:17.980Z,-83
2023-02-19T22:26:28.222Z,-83
2023-02-19T22:29:34.379Z,-84
2023-02-19T22:32:41.154Z,-83
2023-02-19T22:35:49.848Z,-84
2023-02-19T22:38:57.949Z,-82
2023-02-19T22:42:03.968Z,-82
2023-02-19T22:45:13.825Z,-81
2023-02-19T22:48:29.511Z,-85
2023-02-19T22:51:40.483Z,-87
2023-02-19T22:54:46.865Z,-86
2023-02-19T22:57:53.635Z,-83
2023-02-19T23:00:59.448Z,-83
2023-02-19T23:04:06.227Z,-83
2023-02-19T23:07:14.695Z,-84
2023-02-19T23:10:21.413Z,-83
2023-02-19T23:13:30.462Z,-84
2023-02-19T23:16:38.981Z,-85
2023-02-19T23:19:51.301Z,-84
2023-02-19T23:23:01.037Z,-84
2023-02-19T23:26:08.764Z,-82
2023-02-19T23:29:19.691Z,-85
2023-02-19T23:32:28.409Z,-85
2023-02-19T23:35:35.305Z,-81
2023-02-19T23:38:46.057Z,-85
2023-02-19T23:41:55.403Z,-84
2023-02-19T23:45:01.675Z,-84
2023-02-19T23:48:08.365Z,-86
2023-02-19T23:51:14.558Z,-86
2023-02-19T23:54:23.746Z,-85
2023-02-19T23:57:29.571Z,-86
